sensor_id;sensor_type;location;lat;lon;timestamp;P1;durP1;ratioP1;P2;durP2;ratioP2
58091;SDS011;43896;48.178;11.578;2023-12-20T00:00:29;4.05;;;1.88;;
58091;SDS011;43896;48.178;11.578;2023-12-20T00:02:57;4.13;;;1.88;;
58091;SDS011;43896;48.178;11.578;2023-12-20T00:05:22;4.70;;;2.20;;
58091;SDS011;43896;48.178;11.578;2023-12-20T00:07:47;4.35;;;2.10;;
58091;SDS011;43896;48.178;11.578;2023-12-20T00:10:13;4.07;;;1.85;;
58091;SDS011;43896;48.178;11.578;2023-12-20T00:12:38;4.07;;;1.95;;
58091;SDS011;43896;48.178;11.578;2023-12-20T00:15:04;4.60;;;2.00;;
58091;SDS011;43896;48.178;11.578;2023-12-20T00:17:30;4.45;;;1.90;;
58091;SDS011;43896;48.178;11.578;2023-12-20T00:19:55;4.18;;;1.80;;
58091;SDS011;43896;48.178;11.578;2023-12-20T00:22:21;4.35;;;2.00;;
58091;SDS011;43896;48.178;11.578;2023-12-20T00:24:46;4.97;;;2.10;;
58091;SDS011;43896;48.178;11.578;2023-12-20T00:27:14;4.07;;;2.00;;
58091;SDS011;43896;48.178;11.578;2023-12-20T00:29:40;4.95;;;2.40;;
58091;SDS011;43896;48.178;11.578;2023-12-20T00:32:07;4.53;;;1.80;;
58091;SDS011;43896;48.178;11.578;2023-12-20T00:34:33;4.80;;;1.90;;
58091;SDS011;43896;48.178;11.578;2023-12-20T00:36:58;4.22;;;1.90;;
58091;SDS011;43896;48.178;11.578;2023-12-20T00:39:24;3.75;;;1.80;;
58091;SDS011;43896;48.178;11.578;2023-12-20T00:41:49;3.88;;;1.77;;
58091;SDS011;43896;48.178;11.578;2023-12-20T00:44:15;4.45;;;2.00;;
58091;SDS011;43896;48.178;11.578;2023-12-20T00:46:40;3.47;;;1.80;;
58091;SDS011;43896;48.178;11.578;2023-12-20T00:49:06;4.32;;;1.75;;
58091;SDS011;43896;48.178;11.578;2023-12-20T00:51:31;4.70;;;1.92;;
58091;SDS011;43896;48.178;11.578;2023-12-20T00:53:56;3.45;;;1.58;;
58091;SDS011;43896;48.178;11.578;2023-12-20T00:56:22;4.00;;;1.80;;
58091;SDS011;43896;48.178;11.578;2023-12-20T00:58:47;4.00;;;1.73;;
58091;SDS011;43896;48.178;11.578;2023-12-20T01:01:13;3.45;;;1.50;;
58091;SDS011;43896;48.178;11.578;2023-12-20T01:03:38;4.50;;;1.73;;
58091;SDS011;43896;48.178;11.578;2023-12-20T01:06:04;4.90;;;1.70;;
58091;SDS011;43896;48.178;11.578;2023-12-20T01:08:30;3.10;;;1.30;;
58091;SDS011;43896;48.178;11.578;2023-12-20T01:10:55;4.45;;;1.67;;
58091;SDS011;43896;48.178;11.578;2023-12-20T01:13:21;3.13;;;1.55;;
58091;SDS011;43896;48.178;11.578;2023-12-20T01:15:46;3.53;;;1.70;;
58091;SDS011;43896;48.178;11.578;2023-12-20T01:18:13;3.65;;;1.60;;
58091;SDS011;43896;48.178;11.578;2023-12-20T01:20:38;3.28;;;1.40;;
58091;SDS011;43896;48.178;11.578;2023-12-20T01:23:04;2.95;;;1.40;;
58091;SDS011;43896;48.178;11.578;2023-12-20T01:25:29;4.43;;;1.60;;
58091;SDS011;43896;48.178;11.578;2023-12-20T01:27:55;3.30;;;1.40;;
58091;SDS011;43896;48.178;11.578;2023-12-20T01:30:20;3.15;;;1.38;;
58091;SDS011;43896;48.178;11.578;2023-12-20T01:32:45;3.42;;;1.50;;
58091;SDS011;43896;48.178;11.578;2023-12-20T01:35:11;3.70;;;1.40;;
58091;SDS011;43896;48.178;11.578;2023-12-20T01:37:37;5.85;;;1.58;;
58091;SDS011;43896;48.178;11.578;2023-12-20T01:40:03;3.38;;;1.35;;
58091;SDS011;43896;48.178;11.578;2023-12-20T01:42:29;3.33;;;1.30;;
58091;SDS011;43896;48.178;11.578;2023-12-20T01:44:54;4.15;;;1.50;;
58091;SDS011;43896;48.178;11.578;2023-12-20T01:47:20;3.25;;;1.35;;
58091;SDS011;43896;48.178;11.578;2023-12-20T01:49:46;2.70;;;1.13;;
58091;SDS011;43896;48.178;11.578;2023-12-20T01:52:12;2.85;;;1.20;;
58091;SDS011;43896;48.178;11.578;2023-12-20T01:54:38;2.72;;;1.08;;
58091;SDS011;43896;48.178;11.578;2023-12-20T01:57:05;3.67;;;1.40;;
58091;SDS011;43896;48.178;11.578;2023-12-20T01:59:32;2.72;;;1.05;;
58091;SDS011;43896;48.178;11.578;2023-12-20T02:01:58;2.33;;;1.00;;
58091;SDS011;43896;48.178;11.578;2023-12-20T02:04:24;3.33;;;1.08;;
58091;SDS011;43896;48.178;11.578;2023-12-20T02:06:52;2.75;;;1.20;;
58091;SDS011;43896;48.178;11.578;2023-12-20T02:09:18;3.63;;;1.10;;
58091;SDS011;43896;48.178;11.578;2023-12-20T02:11:43;2.88;;;1.05;;
58091;SDS011;43896;48.178;11.578;2023-12-20T02:14:09;4.07;;;1.40;;
58091;SDS011;43896;48.178;11.578;2023-12-20T02:16:34;3.38;;;1.10;;
58091;SDS011;43896;48.178;11.578;2023-12-20T02:19:00;2.60;;;1.10;;
58091;SDS011;43896;48.178;11.578;2023-12-20T02:21:31;3.13;;;1.20;;
58091;SDS011;43896;48.178;11.578;2023-12-20T02:23:57;2.42;;;0.90;;
58091;SDS011;43896;48.178;11.578;2023-12-20T02:26:22;2.88;;;1.15;;
58091;SDS011;43896;48.178;11.578;2023-12-20T02:28:48;3.05;;;1.10;;
58091;SDS011;43896;48.178;11.578;2023-12-20T02:31:13;2.05;;;0.95;;
58091;SDS011;43896;48.178;11.578;2023-12-20T02:33:39;3.47;;;1.00;;
58091;SDS011;43896;48.178;11.578;2023-12-20T02:36:04;3.40;;;1.00;;
58091;SDS011;43896;48.178;11.578;2023-12-20T02:38:31;2.45;;;0.90;;
58091;SDS011;43896;48.178;11.578;2023-12-20T02:40:57;1.75;;;0.82;;
58091;SDS011;43896;48.178;11.578;2023-12-20T02:43:22;2.22;;;0.77;;
58091;SDS011;43896;48.178;11.578;2023-12-20T02:45:47;2.38;;;0.90;;
58091;SDS011;43896;48.178;11.578;2023-12-20T02:48:13;2.42;;;0.90;;
58091;SDS011;43896;48.178;11.578;2023-12-20T02:50:38;1.60;;;0.73;;
58091;SDS011;43896;48.178;11.578;2023-12-20T02:53:04;1.65;;;0.70;;
58091;SDS011;43896;48.178;11.578;2023-12-20T02:55:29;2.00;;;0.90;;
58091;SDS011;43896;48.178;11.578;2023-12-20T02:57:54;2.13;;;0.60;;
58091;SDS011;43896;48.178;11.578;2023-12-20T03:00:20;1.45;;;0.60;;
58091;SDS011;43896;48.178;11.578;2023-12-20T03:02:45;1.40;;;0.60;;
58091;SDS011;43896;48.178;11.578;2023-12-20T03:05:11;1.23;;;0.60;;
58091;SDS011;43896;48.178;11.578;2023-12-20T03:07:36;1.55;;;0.50;;
58091;SDS011;43896;48.178;11.578;2023-12-20T03:10:03;1.05;;;0.45;;
58091;SDS011;43896;48.178;11.578;2023-12-20T03:12:29;0.77;;;0.45;;
58091;SDS011;43896;48.178;11.578;2023-12-20T03:14:54;1.00;;;0.47;;
58091;SDS011;43896;48.178;11.578;2023-12-20T03:17:20;1.15;;;0.50;;
58091;SDS011;43896;48.178;11.578;2023-12-20T03:19:46;1.55;;;0.50;;
58091;SDS011;43896;48.178;11.578;2023-12-20T03:22:11;1.70;;;0.57;;
58091;SDS011;43896;48.178;11.578;2023-12-20T03:24:36;2.28;;;0.60;;
58091;SDS011;43896;48.178;11.578;2023-12-20T03:27:02;3.53;;;0.65;;
58091;SDS011;43896;48.178;11.578;2023-12-20T03:29:28;1.67;;;0.65;;
58091;SDS011;43896;48.178;11.578;2023-12-20T03:31:55;1.77;;;0.63;;
58091;SDS011;43896;48.178;11.578;2023-12-20T03:34:21;1.27;;;0.50;;
58091;SDS011;43896;48.178;11.578;2023-12-20T03:36:46;2.38;;;0.70;;
58091;SDS011;43896;48.178;11.578;2023-12-20T03:39:12;2.42;;;0.60;;
58091;SDS011;43896;48.178;11.578;2023-12-20T03:41:38;1.42;;;0.50;;
58091;SDS011;43896;48.178;11.578;2023-12-20T03:44:03;1.45;;;0.70;;
58091;SDS011;43896;48.178;11.578;2023-12-20T03:46:29;3.60;;;0.70;;
58091;SDS011;43896;48.178;11.578;2023-12-20T03:48:54;1.50;;;0.60;;
58091;SDS011;43896;48.178;11.578;2023-12-20T03:51:20;2.08;;;0.65;;
58091;SDS011;43896;48.178;11.578;2023-12-20T03:53:45;1.92;;;0.70;;
58091;SDS011;43896;48.178;11.578;2023-12-20T03:56:10;1.67;;;0.68;;
58091;SDS011;43896;48.178;11.578;2023-12-20T03:58:36;1.40;;;0.55;;
58091;SDS011;43896;48.178;11.578;2023-12-20T04:01:01;1.23;;;0.50;;
58091;SDS011;43896;48.178;11.578;2023-12-20T04:03:27;1.17;;;0.60;;
58091;SDS011;43896;48.178;11.578;2023-12-20T04:05:53;1.55;;;0.63;;
58091;SDS011;43896;48.178;11.578;2023-12-20T04:08:18;1.50;;;0.75;;
58091;SDS011;43896;48.178;11.578;2023-12-20T04:10:44;1.58;;;0.63;;
58091;SDS011;43896;48.178;11.578;2023-12-20T04:13:12;2.38;;;0.77;;
58091;SDS011;43896;48.178;11.578;2023-12-20T04:15:37;1.45;;;0.55;;
58091;SDS011;43896;48.178;11.578;2023-12-20T04:18:05;1.20;;;0.50;;
58091;SDS011;43896;48.178;11.578;2023-12-20T04:20:31;1.85;;;0.70;;
58091;SDS011;43896;48.178;11.578;2023-12-20T04:22:56;2.60;;;0.57;;
58091;SDS011;43896;48.178;11.578;2023-12-20T04:25:21;1.85;;;0.70;;
58091;SDS011;43896;48.178;11.578;2023-12-20T04:27:47;1.40;;;0.47;;
58091;SDS011;43896;48.178;11.578;2023-12-20T04:30:13;1.92;;;0.70;;
58091;SDS011;43896;48.178;11.578;2023-12-20T04:32:38;1.60;;;0.63;;
58091;SDS011;43896;48.178;11.578;2023-12-20T04:35:04;1.38;;;0.52;;
58091;SDS011;43896;48.178;11.578;2023-12-20T04:37:30;1.52;;;0.60;;
58091;SDS011;43896;48.178;11.578;2023-12-20T04:39:55;1.90;;;0.80;;
58091;SDS011;43896;48.178;11.578;2023-12-20T04:42:20;1.75;;;0.80;;
58091;SDS011;43896;48.178;11.578;2023-12-20T04:44:46;2.55;;;0.80;;
58091;SDS011;43896;48.178;11.578;2023-12-20T04:47:11;2.15;;;0.85;;
58091;SDS011;43896;48.178;11.578;2023-12-20T04:49:37;2.40;;;1.10;;
58091;SDS011;43896;48.178;11.578;2023-12-20T04:52:02;2.80;;;1.00;;
58091;SDS011;43896;48.178;11.578;2023-12-20T04:54:28;2.05;;;0.90;;
58091;SDS011;43896;48.178;11.578;2023-12-20T04:56:53;3.13;;;0.90;;
58091;SDS011;43896;48.178;11.578;2023-12-20T04:59:19;2.22;;;1.00;;
58091;SDS011;43896;48.178;11.578;2023-12-20T05:01:44;2.22;;;1.00;;
58091;SDS011;43896;48.178;11.578;2023-12-20T05:04:12;2.33;;;1.10;;
58091;SDS011;43896;48.178;11.578;2023-12-20T05:06:37;4.28;;;1.10;;
58091;SDS011;43896;48.178;11.578;2023-12-20T05:09:03;4.60;;;1.40;;
58091;SDS011;43896;48.178;11.578;2023-12-20T05:11:28;3.20;;;1.20;;
58091;SDS011;43896;48.178;11.578;2023-12-20T05:13:54;4.45;;;1.40;;
58091;SDS011;43896;48.178;11.578;2023-12-20T05:16:19;3.38;;;1.50;;
58091;SDS011;43896;48.178;11.578;2023-12-20T05:18:47;3.67;;;1.58;;
58091;SDS011;43896;48.178;11.578;2023-12-20T05:21:15;3.17;;;1.40;;
58091;SDS011;43896;48.178;11.578;2023-12-20T05:23:40;3.03;;;1.55;;
58091;SDS011;43896;48.178;11.578;2023-12-20T05:26:05;3.08;;;1.40;;
58091;SDS011;43896;48.178;11.578;2023-12-20T05:28:31;3.65;;;1.60;;
58091;SDS011;43896;48.178;11.578;2023-12-20T05:30:56;4.63;;;1.40;;
58091;SDS011;43896;48.178;11.578;2023-12-20T05:33:22;7.13;;;2.08;;
58091;SDS011;43896;48.178;11.578;2023-12-20T05:35:47;4.00;;;1.80;;
58091;SDS011;43896;48.178;11.578;2023-12-20T05:38:13;4.10;;;1.80;;
58091;SDS011;43896;48.178;11.578;2023-12-20T05:40:38;4.82;;;2.17;;
58091;SDS011;43896;48.178;11.578;2023-12-20T05:43:04;4.53;;;2.05;;
58091;SDS011;43896;48.178;11.578;2023-12-20T05:45:29;5.07;;;1.90;;
58091;SDS011;43896;48.178;11.578;2023-12-20T05:47:54;4.68;;;1.83;;
58091;SDS011;43896;48.178;11.578;2023-12-20T05:50:20;5.05;;;2.50;;
58091;SDS011;43896;48.178;11.578;2023-12-20T05:52:46;4.18;;;1.83;;
58091;SDS011;43896;48.178;11.578;2023-12-20T05:55:11;4.85;;;1.90;;
58091;SDS011;43896;48.178;11.578;2023-12-20T05:57:37;4.07;;;1.80;;
58091;SDS011;43896;48.178;11.578;2023-12-20T06:00:02;3.38;;;1.67;;
58091;SDS011;43896;48.178;11.578;2023-12-20T06:02:28;3.97;;;1.92;;
58091;SDS011;43896;48.178;11.578;2023-12-20T06:04:53;4.10;;;1.70;;
58091;SDS011;43896;48.178;11.578;2023-12-20T06:07:19;6.03;;;1.83;;
58091;SDS011;43896;48.178;11.578;2023-12-20T06:09:45;3.80;;;1.80;;
58091;SDS011;43896;48.178;11.578;2023-12-20T06:12:11;4.28;;;1.50;;
58091;SDS011;43896;48.178;11.578;2023-12-20T06:14:36;3.55;;;1.60;;
58091;SDS011;43896;48.178;11.578;2023-12-20T06:17:02;4.00;;;1.80;;
58091;SDS011;43896;48.178;11.578;2023-12-20T06:19:27;3.90;;;1.80;;
58091;SDS011;43896;48.178;11.578;2023-12-20T06:21:53;5.13;;;2.00;;
58091;SDS011;43896;48.178;11.578;2023-12-20T06:24:18;4.82;;;1.85;;
58091;SDS011;43896;48.178;11.578;2023-12-20T06:26:44;5.22;;;1.75;;
58091;SDS011;43896;48.178;11.578;2023-12-20T06:29:09;4.70;;;1.67;;
58091;SDS011;43896;48.178;11.578;2023-12-20T06:31:34;4.05;;;2.08;;
58091;SDS011;43896;48.178;11.578;2023-12-20T06:34:00;4.20;;;1.80;;
58091;SDS011;43896;48.178;11.578;2023-12-20T06:36:28;4.20;;;1.90;;
58091;SDS011;43896;48.178;11.578;2023-12-20T06:38:53;4.88;;;1.95;;
58091;SDS011;43896;48.178;11.578;2023-12-20T06:41:19;3.67;;;1.80;;
58091;SDS011;43896;48.178;11.578;2023-12-20T06:43:45;4.63;;;1.90;;
58091;SDS011;43896;48.178;11.578;2023-12-20T06:46:10;3.97;;;1.80;;
58091;SDS011;43896;48.178;11.578;2023-12-20T06:48:36;4.22;;;1.70;;
58091;SDS011;43896;48.178;11.578;2023-12-20T06:51:02;4.38;;;1.83;;
58091;SDS011;43896;48.178;11.578;2023-12-20T06:53:28;4.45;;;1.90;;
58091;SDS011;43896;48.178;11.578;2023-12-20T06:55:53;5.88;;;2.20;;
58091;SDS011;43896;48.178;11.578;2023-12-20T06:58:21;3.58;;;1.60;;
58091;SDS011;43896;48.178;11.578;2023-12-20T07:00:46;5.10;;;1.88;;
58091;SDS011;43896;48.178;11.578;2023-12-20T07:03:12;4.47;;;1.80;;
58091;SDS011;43896;48.178;11.578;2023-12-20T07:05:37;3.35;;;1.38;;
58091;SDS011;43896;48.178;11.578;2023-12-20T07:08:02;3.47;;;1.30;;
58091;SDS011;43896;48.178;11.578;2023-12-20T07:10:28;3.58;;;1.40;;
58091;SDS011;43896;48.178;11.578;2023-12-20T07:12:53;2.53;;;1.20;;
58091;SDS011;43896;48.178;11.578;2023-12-20T07:15:20;3.42;;;1.35;;
58091;SDS011;43896;48.178;11.578;2023-12-20T07:17:46;4.55;;;1.20;;
58091;SDS011;43896;48.178;11.578;2023-12-20T07:20:11;3.08;;;1.27;;
58091;SDS011;43896;48.178;11.578;2023-12-20T07:22:37;4.28;;;1.27;;
58091;SDS011;43896;48.178;11.578;2023-12-20T07:25:02;2.97;;;1.20;;
58091;SDS011;43896;48.178;11.578;2023-12-20T07:27:28;3.78;;;1.23;;
58091;SDS011;43896;48.178;11.578;2023-12-20T07:29:54;2.55;;;1.10;;
58091;SDS011;43896;48.178;11.578;2023-12-20T07:32:19;2.85;;;1.00;;
58091;SDS011;43896;48.178;11.578;2023-12-20T07:34:44;2.35;;;1.00;;
58091;SDS011;43896;48.178;11.578;2023-12-20T07:37:10;2.35;;;0.93;;
58091;SDS011;43896;48.178;11.578;2023-12-20T07:39:37;2.55;;;0.88;;
58091;SDS011;43896;48.178;11.578;2023-12-20T07:42:02;1.95;;;0.75;;
58091;SDS011;43896;48.178;11.578;2023-12-20T07:44:28;2.33;;;0.77;;
58091;SDS011;43896;48.178;11.578;2023-12-20T07:46:53;1.50;;;0.70;;
58091;SDS011;43896;48.178;11.578;2023-12-20T07:49:19;1.92;;;0.70;;
58091;SDS011;43896;48.178;11.578;2023-12-20T07:51:44;2.35;;;0.90;;
58091;SDS011;43896;48.178;11.578;2023-12-20T07:54:10;1.40;;;0.65;;
58091;SDS011;43896;48.178;11.578;2023-12-20T07:56:35;4.15;;;1.08;;
58091;SDS011;43896;48.178;11.578;2023-12-20T07:59:00;1.95;;;0.73;;
58091;SDS011;43896;48.178;11.578;2023-12-20T08:01:26;1.65;;;0.73;;
58091;SDS011;43896;48.178;11.578;2023-12-20T08:03:51;1.80;;;0.70;;
58091;SDS011;43896;48.178;11.578;2023-12-20T08:06:17;1.90;;;0.80;;
58091;SDS011;43896;48.178;11.578;2023-12-20T08:08:43;1.65;;;0.70;;
58091;SDS011;43896;48.178;11.578;2023-12-20T08:11:08;1.92;;;0.60;;
58091;SDS011;43896;48.178;11.578;2023-12-20T08:13:33;1.63;;;0.68;;
58091;SDS011;43896;48.178;11.578;2023-12-20T08:15:59;2.25;;;0.60;;
58091;SDS011;43896;48.178;11.578;2023-12-20T08:18:24;1.65;;;0.70;;
58091;SDS011;43896;48.178;11.578;2023-12-20T08:20:50;2.75;;;1.10;;
58091;SDS011;43896;48.178;11.578;2023-12-20T08:23:17;2.35;;;0.70;;
58091;SDS011;43896;48.178;11.578;2023-12-20T08:25:43;1.52;;;0.50;;
58091;SDS011;43896;48.178;11.578;2023-12-20T08:28:08;1.77;;;0.65;;
58091;SDS011;43896;48.178;11.578;2023-12-20T08:30:33;1.15;;;0.57;;
58091;SDS011;43896;48.178;11.578;2023-12-20T08:32:59;1.42;;;0.50;;
58091;SDS011;43896;48.178;11.578;2023-12-20T08:35:25;1.35;;;0.60;;
58091;SDS011;43896;48.178;11.578;2023-12-20T08:37:50;1.00;;;0.50;;
58091;SDS011;43896;48.178;11.578;2023-12-20T08:40:16;1.42;;;0.50;;
58091;SDS011;43896;48.178;11.578;2023-12-20T08:42:41;1.38;;;0.65;;
58091;SDS011;43896;48.178;11.578;2023-12-20T08:45:07;1.95;;;0.52;;
58091;SDS011;43896;48.178;11.578;2023-12-20T08:47:32;2.10;;;0.60;;
58091;SDS011;43896;48.178;11.578;2023-12-20T08:49:58;2.60;;;0.70;;
58091;SDS011;43896;48.178;11.578;2023-12-20T08:52:25;2.20;;;0.60;;
58091;SDS011;43896;48.178;11.578;2023-12-20T08:54:52;1.70;;;0.60;;
58091;SDS011;43896;48.178;11.578;2023-12-20T08:57:21;1.63;;;0.60;;
58091;SDS011;43896;48.178;11.578;2023-12-20T08:59:48;1.35;;;0.55;;
58091;SDS011;43896;48.178;11.578;2023-12-20T09:02:14;3.22;;;0.70;;
58091;SDS011;43896;48.178;11.578;2023-12-20T09:04:41;2.03;;;0.70;;
58091;SDS011;43896;48.178;11.578;2023-12-20T09:07:07;1.92;;;0.70;;
58091;SDS011;43896;48.178;11.578;2023-12-20T09:09:46;1.45;;;0.68;;
58091;SDS011;43896;48.178;11.578;2023-12-20T09:12:11;1.58;;;0.63;;
58091;SDS011;43896;48.178;11.578;2023-12-20T09:14:37;1.15;;;0.52;;
58091;SDS011;43896;48.178;11.578;2023-12-20T09:17:02;1.67;;;0.80;;
58091;SDS011;43896;48.178;11.578;2023-12-20T09:19:28;1.60;;;0.60;;
58091;SDS011;43896;48.178;11.578;2023-12-20T09:21:54;2.22;;;0.80;;
58091;SDS011;43896;48.178;11.578;2023-12-20T09:24:19;0.95;;;0.50;;
58091;SDS011;43896;48.178;11.578;2023-12-20T09:26:45;2.33;;;0.60;;
58091;SDS011;43896;48.178;11.578;2023-12-20T09:29:10;1.83;;;0.70;;
58091;SDS011;43896;48.178;11.578;2023-12-20T09:31:40;1.67;;;0.70;;
58091;SDS011;43896;48.178;11.578;2023-12-20T09:34:05;2.10;;;0.80;;
58091;SDS011;43896;48.178;11.578;2023-12-20T09:36:31;2.45;;;0.70;;
58091;SDS011;43896;48.178;11.578;2023-12-20T09:39:01;1.90;;;0.63;;
58091;SDS011;43896;48.178;11.578;2023-12-20T09:41:26;1.98;;;0.60;;
58091;SDS011;43896;48.178;11.578;2023-12-20T09:43:56;3.25;;;0.90;;
58091;SDS011;43896;48.178;11.578;2023-12-20T09:46:27;1.17;;;0.57;;
58091;SDS011;43896;48.178;11.578;2023-12-20T09:48:58;1.83;;;0.70;;
58091;SDS011;43896;48.178;11.578;2023-12-20T09:51:26;1.45;;;0.70;;
58091;SDS011;43896;48.178;11.578;2023-12-20T09:53:54;1.30;;;0.60;;
58091;SDS011;43896;48.178;11.578;2023-12-20T09:56:19;1.67;;;0.73;;
58091;SDS011;43896;48.178;11.578;2023-12-20T09:58:46;2.47;;;0.70;;
58091;SDS011;43896;48.178;11.578;2023-12-20T10:01:12;2.85;;;0.90;;
58091;SDS011;43896;48.178;11.578;2023-12-20T10:03:37;1.75;;;0.70;;
58091;SDS011;43896;48.178;11.578;2023-12-20T10:06:06;2.03;;;0.70;;
58091;SDS011;43896;48.178;11.578;2023-12-20T10:08:32;2.42;;;1.00;;
58091;SDS011;43896;48.178;11.578;2023-12-20T10:10:57;2.05;;;0.80;;
58091;SDS011;43896;48.178;11.578;2023-12-20T10:13:27;2.65;;;0.80;;
58091;SDS011;43896;48.178;11.578;2023-12-20T10:15:52;2.72;;;0.80;;
58091;SDS011;43896;48.178;11.578;2023-12-20T10:18:20;2.22;;;0.90;;
58091;SDS011;43896;48.178;11.578;2023-12-20T10:20:45;1.95;;;0.80;;
58091;SDS011;43896;48.178;11.578;2023-12-20T10:23:11;2.08;;;0.90;;
58091;SDS011;43896;48.178;11.578;2023-12-20T10:25:37;2.00;;;0.80;;
58091;SDS011;43896;48.178;11.578;2023-12-20T10:28:10;2.08;;;0.90;;
58091;SDS011;43896;48.178;11.578;2023-12-20T10:30:40;1.80;;;0.90;;
58091;SDS011;43896;48.178;11.578;2023-12-20T10:33:06;1.95;;;0.90;;
58091;SDS011;43896;48.178;11.578;2023-12-20T10:35:35;2.78;;;0.90;;
58091;SDS011;43896;48.178;11.578;2023-12-20T10:38:04;3.50;;;1.23;;
58091;SDS011;43896;48.178;11.578;2023-12-20T10:40:30;2.65;;;1.00;;
58091;SDS011;43896;48.178;11.578;2023-12-20T10:42:59;1.73;;;0.90;;
58091;SDS011;43896;48.178;11.578;2023-12-20T10:45:26;2.28;;;0.80;;
58091;SDS011;43896;48.178;11.578;2023-12-20T10:47:51;2.20;;;1.00;;
58091;SDS011;43896;48.178;11.578;2023-12-20T10:50:18;2.55;;;0.93;;
58091;SDS011;43896;48.178;11.578;2023-12-20T10:52:44;1.75;;;0.80;;
58091;SDS011;43896;48.178;11.578;2023-12-20T10:55:11;2.20;;;0.88;;
58091;SDS011;43896;48.178;11.578;2023-12-20T10:57:37;2.63;;;0.90;;
58091;SDS011;43896;48.178;11.578;2023-12-20T11:00:03;1.63;;;0.90;;
58091;SDS011;43896;48.178;11.578;2023-12-20T11:02:36;2.30;;;1.00;;
58091;SDS011;43896;48.178;11.578;2023-12-20T11:07:47;2.10;;;0.80;;
58091;SDS011;43896;48.178;11.578;2023-12-20T11:10:23;2.83;;;1.05;;
58091;SDS011;43896;48.178;11.578;2023-12-20T11:13:02;1.88;;;0.90;;
58091;SDS011;43896;48.178;11.578;2023-12-20T11:15:34;2.95;;;1.00;;
58091;SDS011;43896;48.178;11.578;2023-12-20T11:18:00;2.25;;;1.00;;
58091;SDS011;43896;48.178;11.578;2023-12-20T11:20:38;2.47;;;1.00;;
58091;SDS011;43896;48.178;11.578;2023-12-20T11:23:06;2.58;;;1.15;;
58091;SDS011;43896;48.178;11.578;2023-12-20T11:25:48;3.22;;;1.00;;
58091;SDS011;43896;48.178;11.578;2023-12-20T11:28:21;2.85;;;1.10;;
58091;SDS011;43896;48.178;11.578;2023-12-20T11:30:48;4.40;;;1.20;;
58091;SDS011;43896;48.178;11.578;2023-12-20T11:33:15;2.75;;;1.20;;
58091;SDS011;43896;48.178;11.578;2023-12-20T11:35:41;2.58;;;1.13;;
58091;SDS011;43896;48.178;11.578;2023-12-20T11:38:10;2.75;;;1.17;;
58091;SDS011;43896;48.178;11.578;2023-12-20T11:40:36;2.33;;;1.10;;
58091;SDS011;43896;48.178;11.578;2023-12-20T11:43:02;2.90;;;1.38;;
58091;SDS011;43896;48.178;11.578;2023-12-20T11:45:29;2.65;;;1.25;;
58091;SDS011;43896;48.178;11.578;2023-12-20T11:47:55;2.97;;;1.10;;
58091;SDS011;43896;48.178;11.578;2023-12-20T11:50:22;2.33;;;1.05;;
58091;SDS011;43896;48.178;11.578;2023-12-20T11:52:48;2.78;;;1.17;;
58091;SDS011;43896;48.178;11.578;2023-12-20T11:55:14;2.92;;;1.20;;
58091;SDS011;43896;48.178;11.578;2023-12-20T11:57:40;2.03;;;1.02;;
58091;SDS011;43896;48.178;11.578;2023-12-20T12:00:06;2.45;;;1.08;;
58091;SDS011;43896;48.178;11.578;2023-12-20T12:02:32;4.05;;;1.48;;
58091;SDS011;43896;48.178;11.578;2023-12-20T12:04:59;2.95;;;1.23;;
58091;SDS011;43896;48.178;11.578;2023-12-20T12:07:24;2.83;;;1.20;;
58091;SDS011;43896;48.178;11.578;2023-12-20T12:09:50;2.15;;;0.95;;
58091;SDS011;43896;48.178;11.578;2023-12-20T12:12:16;2.67;;;1.10;;
58091;SDS011;43896;48.178;11.578;2023-12-20T12:14:42;3.53;;;1.30;;
58091;SDS011;43896;48.178;11.578;2023-12-20T12:17:10;2.90;;;1.30;;
58091;SDS011;43896;48.178;11.578;2023-12-20T12:19:39;2.45;;;1.20;;
58091;SDS011;43896;48.178;11.578;2023-12-20T12:22:05;3.35;;;1.20;;
58091;SDS011;43896;48.178;11.578;2023-12-20T12:24:36;3.40;;;1.27;;
58091;SDS011;43896;48.178;11.578;2023-12-20T12:27:02;2.60;;;1.00;;
58091;SDS011;43896;48.178;11.578;2023-12-20T12:29:28;3.47;;;1.10;;
58091;SDS011;43896;48.178;11.578;2023-12-20T12:31:54;2.72;;;1.20;;
58091;SDS011;43896;48.178;11.578;2023-12-20T12:34:20;1.70;;;0.93;;
58091;SDS011;43896;48.178;11.578;2023-12-20T12:36:45;1.90;;;1.02;;
58091;SDS011;43896;48.178;11.578;2023-12-20T12:39:17;2.47;;;1.08;;
58091;SDS011;43896;48.178;11.578;2023-12-20T12:41:43;2.30;;;1.00;;
58091;SDS011;43896;48.178;11.578;2023-12-20T12:44:08;2.60;;;1.10;;
58091;SDS011;43896;48.178;11.578;2023-12-20T12:46:33;2.63;;;1.08;;
58091;SDS011;43896;48.178;11.578;2023-12-20T12:48:59;4.47;;;1.40;;
58091;SDS011;43896;48.178;11.578;2023-12-20T12:51:25;2.83;;;1.33;;
58091;SDS011;43896;48.178;11.578;2023-12-20T12:53:50;2.90;;;1.30;;
58091;SDS011;43896;48.178;11.578;2023-12-20T12:56:15;3.85;;;1.70;;
58091;SDS011;43896;48.178;11.578;2023-12-20T12:58:41;3.72;;;1.70;;
58091;SDS011;43896;48.178;11.578;2023-12-20T13:01:07;3.05;;;1.27;;
58091;SDS011;43896;48.178;11.578;2023-12-20T13:03:32;4.20;;;1.50;;
58091;SDS011;43896;48.178;11.578;2023-12-20T13:05:59;3.72;;;1.60;;
58091;SDS011;43896;48.178;11.578;2023-12-20T13:08:24;4.03;;;1.80;;
58091;SDS011;43896;48.178;11.578;2023-12-20T13:10:50;2.92;;;1.40;;
58091;SDS011;43896;48.178;11.578;2023-12-20T13:13:15;5.38;;;1.50;;
58091;SDS011;43896;48.178;11.578;2023-12-20T13:15:41;2.63;;;1.27;;
58091;SDS011;43896;48.178;11.578;2023-12-20T13:18:07;3.58;;;1.40;;
58091;SDS011;43896;48.178;11.578;2023-12-20T13:20:32;3.10;;;1.23;;
58091;SDS011;43896;48.178;11.578;2023-12-20T13:22:58;2.70;;;1.10;;
58091;SDS011;43896;48.178;11.578;2023-12-20T13:25:24;3.47;;;1.25;;
58091;SDS011;43896;48.178;11.578;2023-12-20T13:27:49;2.70;;;1.20;;
58091;SDS011;43896;48.178;11.578;2023-12-20T13:30:15;3.50;;;1.30;;
58091;SDS011;43896;48.178;11.578;2023-12-20T13:32:42;3.45;;;1.38;;
58091;SDS011;43896;48.178;11.578;2023-12-20T13:35:07;3.53;;;1.48;;
58091;SDS011;43896;48.178;11.578;2023-12-20T13:37:33;4.05;;;1.58;;
58091;SDS011;43896;48.178;11.578;2023-12-20T13:39:59;3.38;;;1.30;;
58091;SDS011;43896;48.178;11.578;2023-12-20T13:42:25;2.92;;;1.33;;
58091;SDS011;43896;48.178;11.578;2023-12-20T13:44:52;2.95;;;1.30;;
58091;SDS011;43896;48.178;11.578;2023-12-20T13:47:18;4.18;;;1.50;;
58091;SDS011;43896;48.178;11.578;2023-12-20T13:49:44;3.75;;;1.50;;
58091;SDS011;43896;48.178;11.578;2023-12-20T13:52:10;4.50;;;1.70;;
58091;SDS011;43896;48.178;11.578;2023-12-20T13:54:36;3.60;;;1.40;;
58091;SDS011;43896;48.178;11.578;2023-12-20T13:57:01;4.13;;;1.60;;
58091;SDS011;43896;48.178;11.578;2023-12-20T13:59:28;4.20;;;1.50;;
58091;SDS011;43896;48.178;11.578;2023-12-20T14:01:53;5.85;;;1.60;;
58091;SDS011;43896;48.178;11.578;2023-12-20T14:04:19;5.18;;;1.60;;
58091;SDS011;43896;48.178;11.578;2023-12-20T14:06:47;3.75;;;1.60;;
58091;SDS011;43896;48.178;11.578;2023-12-20T14:09:13;6.43;;;1.98;;
58091;SDS011;43896;48.178;11.578;2023-12-20T14:11:40;4.20;;;1.80;;
58091;SDS011;43896;48.178;11.578;2023-12-20T14:14:06;4.18;;;1.70;;
58091;SDS011;43896;48.178;11.578;2023-12-20T14:16:33;3.45;;;1.50;;
58091;SDS011;43896;48.178;11.578;2023-12-20T14:19:00;4.30;;;1.60;;
58091;SDS011;43896;48.178;11.578;2023-12-20T14:21:25;5.10;;;1.65;;
58091;SDS011;43896;48.178;11.578;2023-12-20T14:23:51;5.28;;;1.60;;
58091;SDS011;43896;48.178;11.578;2023-12-20T14:26:17;4.30;;;1.63;;
58091;SDS011;43896;48.178;11.578;2023-12-20T14:28:42;4.13;;;1.50;;